Time;durP1;ratioP1;P1;durP2;ratioP2;P2;SDS_P1;SDS_P2;PMS_P1;PMS_P2;Temp;Humidity;BMP_temperature;BMP_pressure;BME280_temperature;BME280_humidity;BME280_pressure;Samples;Min_cycle;Max_cycle;Signal;HPM_P1;HPM_P2
2022/09/28 00:00:57;;;;;;;26.55;16.85;;;7.40;99.90;;;;;;4979012;28;20046;-69
2022/09/28 00:03:24;;;;;;;25.63;17.20;;;7.30;99.90;;;;;;4974699;28;20042;-70
2022/09/28 00:05:51;;;;;;;23.50;17.05;;;7.30;99.90;;;;;;4975197;28;20048;-70
2022/09/28 00:08:18;;;;;;;25.63;16.60;;;7.30;99.90;;;;;;4980416;28;20041;-70
2022/09/28 00:10:53;;;;;;;28.58;18.02;;;7.30;99.90;;;;;;4985132;28;20503;-70
2022/09/28 00:13:20;;;;;;;21.40;16.88;;;7.30;99.90;;;;;;4976236;28;20053;-70
2022/09/28 00:15:47;;;;;;;25.25;17.77;;;7.20;99.90;;;;;;4960911;28;20302;-69
2022/09/28 00:18:13;;;;;;;26.08;18.20;;;7.20;99.90;;;;;;4955866;28;20038;-69
2022/09/28 00:20:40;;;;;;;23.23;16.95;;;7.20;99.90;;;;;;4975709;28;20054;-69
2022/09/28 00:23:07;;;;;;;22.50;16.70;;;7.30;99.90;;;;;;4960717;28;20074;-69
2022/09/28 00:25:33;;;;;;;23.20;17.13;;;7.20;99.90;;;;;;4975560;28;20145;-69
2022/09/28 00:28:00;;;;;;;27.10;16.48;;;7.20;99.90;;;;;;4977472;28;20065;-70
2022/09/28 00:30:27;;;;;;;31.77;16.83;;;7.20;99.90;;;;;;4973799;28;20058;-69
2022/09/28 00:32:53;;;;;;;28.30;17.10;;;7.10;99.90;;;;;;4980022;28;20038;-69
2022/09/28 00:35:20;;;;;;;22.05;16.90;;;7.10;99.90;;;;;;4974710;28;20112;-70
2022/09/28 00:37:48;;;;;;;29.35;17.13;;;7.10;99.90;;;;;;4961012;28;20041;-69
2022/09/28 00:40:14;;;;;;;27.95;17.65;;;7.10;99.90;;;;;;4942636;28;20156;-69
2022/09/28 00:42:41;;;;;;;26.67;17.13;;;7.10;99.90;;;;;;4973920;28;20418;-69
2022/09/28 00:45:08;;;;;;;32.53;18.17;;;7.10;99.90;;;;;;4960891;28;20038;-69
2022/09/28 00:47:53;;;;;;;29.60;17.73;;;7.10;99.90;;;;;;4976506;28;20046;-71
2022/09/28 00:50:20;;;;;;;38.13;18.98;;;7.10;99.90;;;;;;4974519;28;20050;-69
2022/09/28 00:52:57;;;;;;;28.98;17.48;;;7.10;99.90;;;;;;4959379;28;20050;-70
2022/09/28 00:55:48;;;;;;;29.75;17.38;;;7.10;99.90;;;;;;4957329;28;20166;-69
2022/09/28 00:58:20;;;;;;;28.75;17.58;;;7.10;99.90;;;;;;4957759;28;20225;-69
2022/09/28 01:00:47;;;;;;;32.83;18.60;;;7.10;99.90;;;;;;4960488;28;20049;-70
2022/09/28 01:03:16;;;;;;;36.05;18.95;;;7.10;99.90;;;;;;4956788;28;20405;-69
2022/09/28 01:05:45;;;;;;;33.80;19.73;;;7.10;99.90;;;;;;5034934;23;20053;-83
2022/09/28 01:08:13;;;;;;;34.63;19.50;;;7.10;99.90;;;;;;4985817;28;20041;-83
2022/09/28 01:10:42;;;;;;;40.40;19.23;;;7.10;99.90;;;;;;4983128;28;20037;-82
2022/09/28 01:13:11;;;;;;;33.65;19.45;;;7.10;99.90;;;;;;5005059;28;20132;-82
2022/09/28 01:16:01;;;;;;;34.92;19.33;;;7.10;99.90;;;;;;4995051;28;20072;-82
2022/09/28 01:18:47;;;;;;;30.95;17.83;;;7.10;99.90;;;;;;5002303;28;20049;-81
2022/09/28 01:21:19;;;;;;;41.45;20.85;;;7.10;99.90;;;;;;4987351;28;20037;-82
2022/09/28 01:24:13;;;;;;;37.13;21.20;;;7.20;99.90;;;;;;5007789;28;20049;-81
2022/09/28 01:26:55;;;;;;;34.47;19.27;;;7.10;99.90;;;;;;5002107;28;20045;-81
2022/09/28 01:29:57;;;;;;;38.25;20.15;;;7.20;99.90;;;;;;4991995;28;20057;-81
2022/09/28 01:32:42;;;;;;;35.80;20.35;;;7.20;99.90;;;;;;5004883;28;20073;-82
2022/09/28 01:35:14;;;;;;;43.35;21.27;;;7.20;99.90;;;;;;5021522;28;20045;-82
2022/09/28 01:37:50;;;;;;;42.78;22.95;;;7.20;99.90;;;;;;5011153;28;20513;-81
2022/09/28 01:40:23;;;;;;;43.85;23.23;;;7.30;99.90;;;;;;5005482;28;20049;-79
2022/09/28 01:42:57;;;;;;;46.13;23.30;;;7.30;99.90;;;;;;5006256;28;20128;-80
2022/09/28 01:45:29;;;;;;;42.17;22.73;;;7.20;99.90;;;;;;4988949;28;20047;-79
2022/09/28 01:48:01;;;;;;;45.08;24.67;;;7.20;99.90;;;;;;5002769;28;20136;-80
2022/09/28 02:06:43;;;;;;;44.85;21.67;;;7.20;99.90;;;;;;5021822;28;20038;-80
2022/09/28 02:09:17;;;;;;;48.58;21.77;;;7.20;99.90;;;;;;5015516;28;20474;-80
2022/09/28 02:11:53;;;;;;;42.72;21.27;;;7.20;99.90;;;;;;4995598;28;20129;-81
2022/09/28 02:14:21;;;;;;;41.10;22.73;;;7.20;99.90;;;;;;5003034;28;20136;-81
2022/09/28 02:16:53;;;;;;;40.67;20.75;;;7.30;99.90;;;;;;5007584;28;20038;-80
2022/09/28 02:19:27;;;;;;;45.70;22.23;;;7.20;99.90;;;;;;4988663;28;20236;-80
2022/09/28 02:22:07;;;;;;;41.72;21.70;;;7.20;99.90;;;;;;4985603;28;20095;-79
2022/09/28 02:24:38;;;;;;;44.92;21.73;;;7.20;99.90;;;;;;5002282;28;20083;-79
2022/09/28 02:27:25;;;;;;;39.60;21.83;;;7.20;99.90;;;;;;5005258;28;20069;-79
2022/09/28 02:29:52;;;;;;;45.00;22.13;;;7.20;99.90;;;;;;4991396;28;20252;-79
2022/09/28 02:32:19;;;;;;;39.45;20.33;;;7.20;99.90;;;;;;5022445;28;20529;-80
2022/09/28 02:34:46;;;;;;;44.28;23.17;;;7.20;99.90;;;;;;4983112;28;20470;-83
2022/09/28 02:37:13;;;;;;;40.15;20.42;;;7.30;99.90;;;;;;4991966;28;20042;-81
2022/09/28 02:39:39;;;;;;;26.73;16.40;;;7.30;99.90;;;;;;5004863;28;20049;-80
2022/09/28 02:42:33;;;;;;;30.02;16.80;;;7.30;99.90;;;;;;5006668;28;20073;-79
2022/09/28 02:45:18;;;;;;;27.88;14.88;;;7.30;99.90;;;;;;5003322;28;20112;-79
2022/09/28 02:48:06;;;;;;;25.58;14.68;;;7.30;99.90;;;;;;5002101;28;20068;-80
2022/09/28 02:51:04;;;;;;;23.13;13.77;;;7.30;99.90;;;;;;5005191;28;20049;-80
2022/09/28 02:53:40;;;;;;;17.88;11.48;;;7.30;99.90;;;;;;5005579;28;20096;-80
2022/09/28 02:56:21;;;;;;;20.38;13.05;;;7.20;99.90;;;;;;5005176;28;20470;-80
2022/09/28 02:58:55;;;;;;;22.92;15.40;;;7.20;99.90;;;;;;5009560;28;20053;-80
2022/09/28 03:01:43;;;;;;;28.80;16.95;;;7.30;99.90;;;;;;4987593;28;20084;-80
2022/09/28 03:04:20;;;;;;;30.30;17.60;;;7.30;99.90;;;;;;5004073;28;20033;-80
2022/09/28 03:11:24;;;;;;;31.10;16.98;;;7.30;99.90;;;;;;5013752;28;20069;-81
2022/09/28 03:13:51;;;;;;;23.75;15.30;;;7.30;99.90;;;;;;4983685;28;20172;-80
2022/09/28 03:16:20;;;;;;;27.65;16.55;;;7.30;99.90;;;;;;5006134;28;20052;-80
2022/09/28 03:18:48;;;;;;;28.45;16.48;;;7.30;99.90;;;;;;5008183;28;20092;-80
2022/09/28 03:21:15;;;;;;;26.23;16.45;;;7.30;99.90;;;;;;4988717;28;20049;-83
2022/09/28 03:23:42;;;;;;;27.42;17.20;;;7.30;99.90;;;;;;5004657;28;20042;-81
2022/09/28 03:26:15;;;;;;;30.17;18.35;;;7.30;99.90;;;;;;4987215;28;20498;-81
2022/09/28 03:28:42;;;;;;;33.53;19.00;;;7.20;99.90;;;;;;5001063;28;20037;-79
2022/09/28 03:31:14;;;;;;;30.17;19.63;;;7.20;99.90;;;;;;5004786;28;20049;-79
2022/09/28 03:33:41;;;;;;;33.60;18.73;;;7.10;99.90;;;;;;5004019;28;20044;-80
2022/09/28 03:36:08;;;;;;;29.27;16.80;;;7.10;99.90;;;;;;4989846;28;20045;-79
2022/09/28 03:38:35;;;;;;;33.45;18.85;;;7.10;99.90;;;;;;4987118;28;20049;-80
2022/09/28 03:41:04;;;;;;;32.78;18.52;;;7.10;99.90;;;;;;5001743;28;20041;-81
2022/09/28 03:43:34;;;;;;;32.15;18.08;;;7.10;99.90;;;;;;5005531;28;20037;-81
2022/09/28 03:46:01;;;;;;;27.75;17.10;;;7.10;99.90;;;;;;4991693;28;20424;-82
2022/09/28 03:48:33;;;;;;;38.95;19.40;;;7.10;99.90;;;;;;4997667;28;20044;-81
2022/09/28 03:51:04;;;;;;;35.78;19.60;;;7.10;99.90;;;;;;4996599;28;20102;-81
2022/09/28 03:53:32;;;;;;;34.47;19.23;;;7.10;99.90;;;;;;4983033;28;20050;-80
2022/09/28 03:56:12;;;;;;;39.90;20.13;;;7.10;99.90;;;;;;5001346;28;20045;-80
2022/09/28 03:58:40;;;;;;;40.97;20.88;;;7.10;99.90;;;;;;4997661;28;20045;-81
2022/09/28 04:01:11;;;;;;;38.67;20.75;;;7.10;99.90;;;;;;4988817;28;20045;-80
2022/09/28 04:03:44;;;;;;;;;;;7.00;99.90;;;;;;4996689;28;20480;-80
2022/09/28 04:06:11;;;;;;;41.25;21.35;;;7.00;99.90;;;;;;5017815;28;20481;-79
2022/09/28 04:08:38;;;;;;;44.90;23.20;;;7.00;99.90;;;;;;4988157;28;20053;-79
2022/09/28 04:11:05;;;;;;;60.78;24.98;;;7.00;99.90;;;;;;4986211;28;20427;-81
2022/09/28 04:13:32;;;;;;;52.17;26.77;;;7.10;99.90;;;;;;4986149;28;20064;-81
2022/09/28 04:16:00;;;;;;;54.05;27.75;;;7.10;99.90;;;;;;4984705;28;20528;-80
2022/09/28 04:18:32;;;;;;;62.40;28.02;;;7.00;99.90;;;;;;4987276;28;20042;-79
2022/09/28 04:21:25;;;;;;;78.03;31.83;;;7.00;99.90;;;;;;5014582;28;20549;-80
2022/09/28 04:24:01;;;;;;;66.10;29.65;;;7.10;99.90;;;;;;4986379;28;20053;-82
2022/09/28 04:26:28;;;;;;;68.43;29.13;;;7.20;99.90;;;;;;4999263;28;20057;-80
2022/09/28 04:31:45;;;;;;;77.95;33.22;;;7.10;99.90;;;;;;5013102;28;20057;-79
2022/09/28 04:34:16;;;;;;;66.63;29.30;;;7.10;99.90;;;;;;4987450;28;20049;-80
2022/09/28 04:36:44;;;;;;;53.42;24.63;;;7.00;99.90;;;;;;5002877;28;20706;-80
2022/09/28 04:39:13;;;;;;;61.85;25.05;;;7.00;99.90;;;;;;4986985;28;20070;-79
2022/09/28 04:41:42;;;;;;;57.33;24.50;;;7.00;99.90;;;;;;4997766;28;20036;-80
2022/09/28 04:44:09;;;;;;;52.22;25.20;;;7.00;99.90;;;;;;5004254;28;20124;-80
2022/09/28 04:46:36;;;;;;;54.80;24.17;;;7.00;99.90;;;;;;4998890;28;20491;-79
2022/09/28 04:49:23;;;;;;;;;;;6.90;99.90;;;;;;5018661;28;20056;-79
2022/09/28 04:51:55;;;;;;;64.28;25.48;;;7.00;99.90;;;;;;5000680;28;19921;-80
2022/09/28 04:54:22;;;;;;;63.38;28.05;;;7.00;99.90;;;;;;5013082;28;20128;-80
2022/09/28 04:56:50;;;;;;;56.92;27.42;;;7.10;99.90;;;;;;4995750;28;20046;-80
2022/09/28 04:59:16;;;;;;;65.97;30.08;;;7.10;99.90;;;;;;4984787;28;20076;-80
2022/09/28 05:01:43;;;;;;;67.05;31.85;;;7.10;99.90;;;;;;5000676;28;20721;-79
2022/09/28 05:04:16;;;;;;;78.32;31.08;;;7.10;99.90;;;;;;4998208;28;20095;-80
2022/09/28 05:07:03;;;;;;;64.13;29.67;;;7.10;99.90;;;;;;5001554;28;20041;-80
2022/09/28 05:09:29;;;;;;;59.00;28.77;;;7.10;99.90;;;;;;5004522;28;20037;-79
2022/09/28 05:12:02;;;;;;;65.88;28.55;;;7.00;99.90;;;;;;5004452;28;20095;-79
2022/09/28 05:14:29;;;;;;;55.15;27.70;;;6.90;99.90;;;;;;5002525;28;20041;-78
2022/09/28 05:16:56;;;;;;;73.00;32.70;;;6.90;99.90;;;;;;4985553;28;20626;-79
2022/09/28 05:19:26;;;;;;;82.05;35.65;;;6.90;99.90;;;;;;5019354;28;20076;-78
2022/09/28 05:22:06;;;;;;;80.20;34.35;;;6.90;99.90;;;;;;4998960;28;20042;-80
2022/09/28 05:24:37;;;;;;;85.05;34.35;;;7.00;99.90;;;;;;4984202;28;20049;-79
2022/09/28 05:27:04;;;;;;;74.13;34.28;;;7.00;99.90;;;;;;4984869;28;20037;-80
2022/09/28 05:29:33;;;;;;;67.43;29.88;;;7.00;99.90;;;;;;4985063;28;20444;-79
2022/09/28 05:32:18;;;;;;;;;;;7.00;99.90;;;;;;5008331;28;20049;-80
2022/09/28 05:34:59;;;;;;;66.20;29.67;;;7.00;99.90;;;;;;4994143;28;19921;-80
2022/09/28 05:37:33;;;;;;;67.53;31.05;;;7.10;99.90;;;;;;4984259;28;20060;-80
2022/09/28 05:40:00;;;;;;;83.57;35.35;;;7.10;99.90;;;;;;5003046;28;20053;-79
2022/09/28 05:42:26;;;;;;;86.15;34.95;;;7.10;99.90;;;;;;4982260;28;20038;-79
2022/09/28 05:44:53;;;;;;;73.85;32.38;;;7.10;99.90;;;;;;4983058;28;20068;-79
2022/09/28 05:47:20;;;;;;;79.03;32.83;;;7.10;99.90;;;;;;4999062;28;20049;-80
2022/09/28 05:49:47;;;;;;;80.03;34.20;;;7.00;99.90;;;;;;4999512;28;20427;-79
2022/09/28 05:52:13;;;;;;;93.13;36.60;;;7.00;99.90;;;;;;4988354;28;20050;-79
2022/09/28 05:54:40;;;;;;;84.32;35.60;;;7.00;99.90;;;;;;5001108;28;20053;-80
2022/09/28 05:57:07;;;;;;;68.75;31.75;;;7.00;99.90;;;;;;5003799;28;20056;-80
2022/09/28 05:59:35;;;;;;;72.82;30.70;;;7.00;99.90;;;;;;5009471;28;20073;-79
2022/09/28 06:02:02;;;;;;;79.28;34.70;;;6.90;99.90;;;;;;5004507;28;20131;-79
2022/09/28 06:04:29;;;;;;;85.57;35.85;;;6.90;99.90;;;;;;4998255;28;20064;-78
2022/09/28 06:06:57;;;;;;;95.40;37.25;;;6.90;99.90;;;;;;4992728;28;20064;-78
2022/09/28 06:09:24;;;;;;;94.15;36.72;;;6.90;99.90;;;;;;5001062;28;20030;-79
2022/09/28 06:11:56;;;;;;;86.82;36.38;;;6.90;99.90;;;;;;5008173;28;20033;-79
2022/09/28 06:14:47;;;;;;;88.50;35.42;;;6.90;99.90;;;;;;5001045;28;20199;-79
2022/09/28 06:17:14;;;;;;;84.47;37.13;;;7.00;99.90;;;;;;4989607;28;20033;-79
2022/09/28 06:19:46;;;;;;;85.05;36.55;;;7.00;99.90;;;;;;4987188;28;20499;-79
2022/09/28 06:22:42;;;;;;;94.65;37.72;;;7.00;99.90;;;;;;5008955;28;20053;-78
2022/09/28 06:25:09;;;;;;;78.72;35.80;;;7.00;99.90;;;;;;4991051;28;20564;-79
2022/09/28 06:27:41;;;;;;;76.07;32.08;;;7.00;99.90;;;;;;4996358;28;20044;-79
2022/09/28 06:30:08;;;;;;;78.55;34.78;;;7.00;99.90;;;;;;5002111;28;20050;-80
2022/09/28 06:32:35;;;;;;;78.25;33.05;;;7.00;99.90;;;;;;4985017;28;20072;-79
2022/09/28 06:35:01;;;;;;;69.10;31.17;;;7.00;99.90;;;;;;4989245;28;20096;-79
2022/09/28 06:37:28;;;;;;;66.75;30.95;;;7.00;99.90;;;;;;4984525;28;20141;-79
2022/09/28 06:39:55;;;;;;;62.35;28.88;;;7.00;99.90;;;;;;5005513;28;20033;-79
2022/09/28 06:42:22;;;;;;;53.35;27.45;;;7.00;99.90;;;;;;4979852;28;20687;-80
2022/09/28 06:45:09;;;;;;;;;;;7.00;99.90;;;;;;5019721;28;20053;-80
2022/09/28 06:48:04;;;;;;;64.13;29.65;;;7.10;99.90;;;;;;4987549;28;20045;-80
2022/09/28 06:50:39;;;;;;;71.88;31.02;;;7.10;99.90;;;;;;4989096;28;20680;-80
2022/09/28 06:53:27;;;;;;;69.25;30.55;;;7.10;99.90;;;;;;4997162;28;20180;-80
2022/09/28 06:55:57;;;;;;;62.95;28.80;;;7.30;99.90;;;;;;5001217;28;20099;-79
2022/09/28 06:58:27;;;;;;;65.78;29.20;;;7.30;99.90;;;;;;4987835;28;20061;-81
2022/09/28 07:00:58;;;;;;;61.78;28.67;;;7.30;99.90;;;;;;4999361;28;20073;-80
2022/09/28 07:03:26;;;;;;;60.97;27.17;;;7.40;99.90;;;;;;4986356;28;20125;-80
2022/09/28 07:06:02;;;;;;;65.03;29.40;;;7.40;99.90;;;;;;5006177;28;20034;-80
2022/09/28 07:08:39;;;;;;;69.38;31.00;;;7.50;99.90;;;;;;5001824;28;20579;-79
2022/09/28 07:11:25;;;;;;;;;;;7.50;99.90;;;;;;5007706;28;20522;-80
2022/09/28 07:14:24;;;;;;;63.75;30.52;;;7.60;99.90;;;;;;4999756;28;19964;-80
2022/09/28 07:17:11;;;;;;;68.43;31.52;;;7.50;99.90;;;;;;4987183;28;20149;-80
2022/09/28 07:19:41;;;;;;;74.88;33.25;;;7.50;99.90;;;;;;5004267;28;20625;-80
2022/09/28 07:22:13;;;;;;;70.43;33.05;;;7.50;99.90;;;;;;4986131;28;20100;-79
2022/09/28 07:24:47;;;;;;;67.05;31.55;;;7.60;99.90;;;;;;4991257;28;20099;-80
2022/09/28 07:27:40;;;;;;;69.75;32.80;;;7.60;99.90;;;;;;4985823;28;20045;-80
2022/09/28 07:30:34;;;;;;;68.10;31.90;;;7.60;99.90;;;;;;4986895;28;20053;-80
2022/09/28 07:33:21;;;;;;;66.47;31.63;;;7.70;99.90;;;;;;4989560;28;20173;-80
2022/09/28 07:35:54;;;;;;;70.93;33.28;;;7.50;99.90;;;;;;5002214;28;20045;-80
2022/09/28 07:38:25;;;;;;;67.50;30.60;;;7.50;99.90;;;;;;5003773;28;20041;-82
2022/09/28 07:43:48;;;;;;;81.28;33.72;;;7.40;99.90;;;;;;4992873;28;20047;-80
2022/09/28 07:46:16;;;;;;;77.13;33.83;;;7.40;99.90;;;;;;4997255;28;20079;-80
2022/09/28 07:48:55;;;;;;;93.65;35.58;;;7.50;99.90;;;;;;5008239;28;20037;-80
2022/09/28 07:51:32;;;;;;;61.67;29.55;;;7.60;99.90;;;;;;4996878;28;20042;-80
2022/09/28 07:54:16;;;;;;;56.65;27.45;;;7.60;99.90;;;;;;5002945;28;20045;-80
2022/09/28 07:56:59;;;;;;;58.65;26.25;;;7.60;99.90;;;;;;4993085;28;20129;-80
2022/09/28 07:59:39;;;;;;;61.45;28.20;;;7.50;99.90;;;;;;4989288;28;20043;-80
2022/09/28 08:02:27;;;;;;;54.05;26.83;;;7.50;99.90;;;;;;5005597;28;20069;-80
2022/09/28 08:04:53;;;;;;;48.33;23.45;;;7.50;99.90;;;;;;5006149;28;20128;-81
2022/09/28 08:07:22;;;;;;;46.13;22.75;;;7.50;99.90;;;;;;5013373;28;20117;-79
2022/09/28 08:10:02;;;;;;;50.78;22.92;;;7.50;99.90;;;;;;5016643;28;20037;-79
2022/09/28 08:12:55;;;;;;;41.58;23.48;;;7.50;99.90;;;;;;5002998;28;20050;-80
2022/09/28 08:15:38;;;;;;;46.63;24.67;;;7.60;99.90;;;;;;5001375;28;20491;-79
2022/09/28 08:18:18;;;;;;;49.95;24.35;;;7.60;99.90;;;;;;5001721;28;20045;-80
2022/09/28 08:23:31;;;;;;;46.20;23.70;;;7.90;99.90;;;;;;4997465;28;20125;-81
2022/09/28 08:25:58;;;;;;;41.83;24.83;;;7.90;99.90;;;;;;4990168;28;20049;-80
2022/09/28 08:28:25;;;;;;;41.42;23.77;;;7.90;99.90;;;;;;5000036;28;20084;-79
2022/09/28 08:30:58;;;;;;;49.35;25.58;;;8.00;99.90;;;;;;5016067;28;20033;-80
2022/09/28 08:33:44;;;;;;;45.10;23.92;;;8.10;99.90;;;;;;5008228;28;20053;-79
2022/09/28 08:36:29;;;;;;;;;;;8.10;99.90;;;;;;5006870;28;20072;-79
2022/09/28 08:39:02;;;;;;;54.63;26.38;;;8.00;99.90;;;;;;5005843;28;19928;-80
2022/09/28 08:42:10;;;;;;;49.47;25.45;;;8.00;99.90;;;;;;5007715;28;20132;-80
2022/09/28 08:44:56;;;;;;;46.17;26.20;;;8.00;99.90;;;;;;5016369;28;20092;-79
2022/09/28 08:51:16;;;;;;;34.22;18.88;;;8.10;99.90;;;;;;5015917;28;20164;-80
2022/09/28 08:54:09;;;;;;;30.60;20.38;;;8.00;99.90;;;;;;4989501;28;20136;-80
2022/09/28 08:57:09;;;;;;;25.38;17.75;;;8.20;99.90;;;;;;5006134;28;20033;-79
2022/09/28 08:59:53;;;;;;;29.25;20.55;;;8.30;99.90;;;;;;4980486;28;20038;-79
2022/09/28 09:02:32;;;;;;;31.75;19.95;;;8.40;99.90;;;;;;4992158;28;20773;-80
2022/09/28 09:05:15;;;;;;;26.65;21.10;;;8.50;99.90;;;;;;4997838;28;20037;-80
2022/09/28 09:08:16;;;;;;;29.13;21.40;;;8.50;99.90;;;;;;4990028;28;20049;-80
2022/09/28 09:10:49;;;;;;;30.17;20.80;;;8.50;99.90;;;;;;4980966;28;20181;-79
2022/09/28 09:13:44;;;;;;;31.17;22.65;;;8.50;99.90;;;;;;4990346;28;20605;-80
2022/09/28 09:16:33;;;;;;;35.70;24.30;;;8.30;99.90;;;;;;4997786;28;20057;-80
2022/09/28 09:19:34;;;;;;;45.72;28.13;;;8.10;99.90;;;;;;4994583;28;20466;-79
2022/09/28 09:22:38;;;;;;;39.10;24.83;;;8.30;99.90;;;;;;4994294;28;20184;-79
2022/09/28 09:25:18;;;;;;;32.80;24.10;;;8.30;99.90;;;;;;4982114;28;20042;-79
2022/09/28 09:28:30;;;;;;;33.40;23.73;;;8.20;99.90;;;;;;5004954;28;20049;-79
2022/09/28 09:31:22;;;;;;;35.72;24.38;;;8.20;99.90;;;;;;4996331;28;20042;-79
2022/09/28 09:34:28;;;;;;;33.55;23.50;;;8.40;99.90;;;;;;4987899;28;20069;-79
2022/09/28 09:37:29;;;;;;;30.38;21.50;;;8.50;99.90;;;;;;5007238;28;20049;-79
2022/09/28 09:40:35;;;;;;;28.13;22.17;;;8.50;99.90;;;;;;5002351;28;20583;-79
2022/09/28 09:44:10;;;;;;;32.35;24.02;;;8.60;99.90;;;;;;4956587;28;20039;-80
2022/09/28 09:46:58;;;;;;;29.63;22.67;;;8.90;99.90;;;;;;4932848;29;20701;-80
2022/09/28 09:49:45;;;;;;;27.05;22.88;;;9.10;99.90;;;;;;4982519;28;20125;-79
2022/09/28 09:52:31;;;;;;;26.52;23.48;;;9.40;99.90;;;;;;5022458;28;20041;-80
2022/09/28 09:55:04;;;;;;;26.27;23.13;;;9.70;99.90;;;;;;5005583;28;20049;-80
2022/09/28 09:57:44;;;;;;;25.85;22.67;;;9.80;99.90;;;;;;4989409;28;20083;-80
2022/09/28 10:00:27;;;;;;;28.08;25.25;;;9.60;99.90;;;;;;5007637;28;20128;-79
2022/09/28 10:03:18;;;;;;;29.65;26.58;;;9.80;99.90;;;;;;4993280;28;20251;-79
2022/09/28 10:05:50;;;;;;;28.83;26.13;;;10.00;99.90;;;;;;5006920;28;20046;-79
2022/09/28 10:08:20;;;;;;;28.73;26.23;;;9.90;99.90;;;;;;4994792;28;20049;-79
2022/09/28 10:10:51;;;;;;;28.30;25.42;;;9.60;99.90;;;;;;5007024;28;20044;-79
2022/09/28 10:13:20;;;;;;;29.42;25.90;;;9.60;99.90;;;;;;4988456;28;20092;-80
2022/09/28 10:15:49;;;;;;;30.33;27.05;;;9.50;99.90;;;;;;4999882;28;20046;-80
2022/09/28 10:18:31;;;;;;;29.92;26.45;;;9.50;99.90;;;;;;4993206;28;20049;-79
2022/09/28 10:21:20;;;;;;;32.60;27.88;;;9.30;99.90;;;;;;5021286;28;20149;-79
2022/09/28 10:23:58;;;;;;;33.40;27.30;;;9.10;99.90;;;;;;4987867;28;20549;-79
2022/09/28 10:26:43;;;;;;;35.95;30.38;;;9.00;99.90;;;;;;5006331;28;20033;-80
2022/09/28 10:29:16;;;;;;;39.28;28.58;;;9.00;99.90;;;;;;4991829;28;20359;-79
2022/09/28 10:31:47;;;;;;;36.85;31.42;;;9.00;99.90;;;;;;4993186;28;20664;-80
2022/09/28 10:34:29;;;;;;;37.42;29.45;;;9.00;99.90;;;;;;5006703;28;20403;-80
2022/09/28 10:37:10;;;;;;;33.38;28.27;;;9.10;99.90;;;;;;5006405;28;20041;-80
2022/09/28 10:39:57;;;;;;;34.08;27.10;;;8.90;99.90;;;;;;5019087;28;20091;-80
2022/09/28 10:42:32;;;;;;;30.58;26.00;;;8.90;99.90;;;;;;5011431;28;20045;-80
2022/09/28 10:45:22;;;;;;;32.80;25.38;;;8.90;99.90;;;;;;4994221;28;20120;-79
2022/09/28 10:47:49;;;;;;;27.98;24.63;;;8.80;99.90;;;;;;5005362;28;20038;-79
2022/09/28 10:50:23;;;;;;;29.70;24.83;;;8.70;99.90;;;;;;4998504;28;20061;-80
2022/09/28 10:53:16;;;;;;;28.23;24.17;;;8.70;99.90;;;;;;4991515;28;20050;-80
2022/09/28 10:56:02;;;;;;;31.65;24.90;;;8.80;99.90;;;;;;5041898;28;20093;-79
2022/09/28 10:58:40;;;;;;;27.25;22.88;;;8.90;99.90;;;;;;5006966;28;20076;-79
2022/09/28 11:01:21;;;;;;;28.55;23.90;;;8.90;99.90;;;;;;5003938;28;20034;-79
2022/09/28 11:04:02;;;;;;;29.05;23.75;;;8.90;99.90;;;;;;5006077;28;20050;-81
2022/09/28 11:06:34;;;;;;;29.08;24.77;;;8.90;99.90;;;;;;5004423;28;20045;-80
2022/09/28 11:09:06;;;;;;;27.48;22.70;;;9.00;99.90;;;;;;4987132;28;20049;-79
2022/09/28 11:11:40;;;;;;;24.15;21.58;;;9.00;99.90;;;;;;5026747;28;20046;-79
2022/09/28 11:14:23;;;;;;;26.77;20.80;;;8.90;99.90;;;;;;5005165;28;20045;-80
2022/09/28 11:17:28;;;;;;;21.40;19.17;;;8.80;99.90;;;;;;5006520;28;20041;-80
2022/09/28 11:20:01;;;;;;;24.70;20.15;;;8.70;99.90;;;;;;4982846;28;20697;-79
2022/09/28 11:22:43;;;;;;;24.52;19.23;;;8.60;99.90;;;;;;4986528;28;20069;-79
2022/09/28 11:25:23;;;;;;;16.88;15.23;;;8.50;99.90;;;;;;4988197;28;20610;-79
2022/09/28 11:27:49;;;;;;;17.73;14.60;;;8.50;99.90;;;;;;5008014;28;20041;-78
2022/09/28 11:30:58;;;;;;;12.98;11.77;;;8.50;99.90;;;;;;4990220;28;20103;-78
2022/09/28 11:34:02;;;;;;;14.25;12.50;;;8.50;99.90;;;;;;4996247;28;20129;-78
2022/09/28 11:37:01;;;;;;;13.40;12.18;;;8.50;99.90;;;;;;5003668;28;20053;-80
2022/09/28 11:39:58;;;;;;;16.73;14.02;;;8.60;99.90;;;;;;5004068;28;20053;-79
2022/09/28 11:42:37;;;;;;;19.33;16.13;;;8.60;99.90;;;;;;5004863;28;20045;-80
2022/09/28 11:45:41;;;;;;;15.98;14.48;;;8.60;99.90;;;;;;5003395;28;20041;-79
2022/09/28 11:48:12;;;;;;;19.05;16.23;;;8.70;99.90;;;;;;4989839;28;20912;-79
2022/09/28 11:50:52;;;;;;;20.40;16.48;;;8.80;99.90;;;;;;5000929;28;20494;-80
2022/09/28 11:53:30;;;;;;;16.40;14.70;;;8.80;99.90;;;;;;5000318;28;20057;-80
2022/09/28 11:56:37;;;;;;;19.00;17.13;;;8.70;99.90;;;;;;5001943;28;20052;-80
2022/09/28 11:59:22;;;;;;;16.52;15.07;;;8.70;99.90;;;;;;4988155;28;20046;-79
2022/09/28 12:02:09;;;;;;;17.83;16.33;;;8.50;99.90;;;;;;5006592;28;20568;-79
2022/09/28 12:04:57;;;;;;;19.40;17.60;;;8.50;99.90;;;;;;4991562;28;20205;-79
2022/09/28 12:07:54;;;;;;;21.33;19.15;;;8.40;99.90;;;;;;4991607;28;20048;-79
2022/09/28 12:11:14;;;;;;;20.50;16.95;;;8.40;99.90;;;;;;4968160;28;20106;-79
2022/09/28 12:14:22;;;;;;;22.48;17.58;;;8.60;99.90;;;;;;4996786;28;20418;-78
2022/09/28 12:17:01;;;;;;;21.83;18.45;;;8.80;99.90;;;;;;5003270;28;20046;-78
2022/09/28 12:19:41;;;;;;;27.45;19.75;;;8.90;99.90;;;;;;4985270;28;20046;-78
2022/09/28 12:22:28;;;;;;;24.02;19.50;;;9.00;99.90;;;;;;5025350;28;20046;-78
2022/09/28 12:24:56;;;;;;;25.52;21.10;;;9.00;99.90;;;;;;4993831;28;20124;-78
2022/09/28 12:27:54;;;;;;;27.73;21.80;;;8.90;99.90;;;;;;4987281;28;20124;-78
2022/09/28 12:30:25;;;;;;;23.95;19.48;;;9.10;99.90;;;;;;4995813;28;20057;-78
2022/09/28 12:33:08;;;;;;;23.00;20.48;;;9.10;99.90;;;;;;4989707;28;20125;-78
2022/09/28 12:35:37;;;;;;;25.10;21.48;;;8.90;99.90;;;;;;4996305;28;20042;-79
2022/09/28 12:38:19;;;;;;;29.48;22.65;;;8.90;99.90;;;;;;4990161;28;20046;-78
2022/09/28 12:41:07;;;;;;;27.83;22.27;;;8.80;99.90;;;;;;5006686;28;20071;-79
2022/09/28 12:44:12;;;;;;;28.42;21.40;;;8.80;99.90;;;;;;5001504;28;20115;-78
2022/09/28 12:46:56;;;;;;;32.70;23.40;;;8.70;99.90;;;;;;5006425;28;20133;-79
2022/09/28 12:49:48;;;;;;;31.48;21.90;;;8.70;99.90;;;;;;5007390;28;20046;-78
2022/09/28 12:52:51;;;;;;;29.83;21.80;;;8.70;99.90;;;;;;5005985;28;20068;-79
2022/09/28 12:55:29;;;;;;;33.25;22.10;;;9.00;99.90;;;;;;5004710;28;20043;-78
2022/09/28 12:58:22;;;;;;;26.73;20.48;;;9.30;99.90;;;;;;5013988;28;20041;-79
2022/09/28 13:01:00;;;;;;;31.50;20.33;;;9.40;99.90;;;;;;5001787;28;20037;-78
2022/09/28 13:03:45;;;;;;;27.17;20.90;;;9.60;99.90;;;;;;4990478;28;20798;-79
2022/09/28 13:06:25;;;;;;;28.00;21.17;;;9.90;99.90;;;;;;5023844;28;20301;-79
2022/09/28 13:09:18;;;;;;;28.10;22.08;;;10.00;99.90;;;;;;4985672;28;20473;-79
2022/09/28 13:11:57;;;;;;;25.85;22.55;;;10.00;99.90;;;;;;5001793;28;20037;-79
2022/09/28 13:14:33;;;;;;;26.63;23.63;;;10.20;99.90;;;;;;4999154;28;20052;-79
2022/09/28 13:17:28;;;;;;;29.88;25.30;;;10.20;99.90;;;;;;4998657;28;20129;-78
2022/09/28 13:20:12;;;;;;;22.77;20.53;;;10.30;99.90;;;;;;5001983;28;20046;-78
2022/09/28 13:23:08;;;;;;;24.92;22.38;;;10.20;99.90;;;;;;5005109;28;20697;-78
2022/09/28 13:25:39;;;;;;;25.35;22.85;;;10.20;99.90;;;;;;4984803;28;20064;-79
2022/09/28 13:28:06;;;;;;;27.05;24.42;;;10.00;99.90;;;;;;5011070;28;20048;-78
2022/09/28 13:30:37;;;;;;;26.40;24.00;;;9.90;99.90;;;;;;4991220;28;20046;-78
2022/09/28 13:33:06;;;;;;;27.13;24.63;;;9.80;99.90;;;;;;5010079;28;20109;-78
2022/09/28 13:35:33;;;;;;;26.17;23.77;;;9.80;99.90;;;;;;4998136;28;20057;-79
2022/09/28 13:38:16;;;;;;;26.33;23.75;;;9.80;99.90;;;;;;5000952;28;20049;-79
2022/09/28 13:41:04;;;;;;;27.75;25.00;;;9.70;99.90;;;;;;4993631;28;20114;-79
2022/09/28 13:43:53;;;;;;;29.27;24.75;;;9.70;99.90;;;;;;5008466;28;20042;-79
2022/09/28 13:46:27;;;;;;;25.30;22.73;;;9.70;99.90;;;;;;5012482;28;20113;-79
2022/09/28 13:49:16;;;;;;;28.43;22.70;;;9.70;99.90;;;;;;4993851;28;20045;-79
2022/09/28 13:51:54;;;;;;;26.77;24.08;;;9.50;99.90;;;;;;5009112;28;20116;-78
2022/09/28 13:54:46;;;;;;;28.50;25.55;;;9.50;99.90;;;;;;4993012;28;20579;-78
2022/09/28 13:57:51;;;;;;;29.38;26.33;;;9.30;99.90;;;;;;5029036;28;20076;-79
2022/09/28 14:00:45;;;;;;;32.42;27.75;;;9.40;99.90;;;;;;5006088;28;20062;-79
2022/09/28 14:03:42;;;;;;;28.02;25.02;;;9.60;99.90;;;;;;5019249;28;20510;-78
2022/09/28 14:06:43;;;;;;;33.60;27.30;;;9.70;99.90;;;;;;5014193;28;20037;-79